createdAt,value
2017-08-05T00:02:30.661Z,100438
2017-08-05T00:07:33.872Z,100446
2017-08-05T00:12:37.214Z,100431
2017-08-05T00:17:41.213Z,100424
2017-08-05T00:22:44.426Z,100431
2017-08-05T00:27:47.613Z,100425
2017-08-05T00:32:50.805Z,100417
2017-08-05T00:37:54.018Z,100414
2017-08-05T00:42:57.231Z,100415
2017-08-05T00:48:00.417Z,100406
2017-08-05T00:53:03.616Z,100401
2017-08-05T00:58:06.821Z,100409
2017-08-05T01:03:09.990Z,100412
2017-08-05T01:08:13.166Z,100413
2017-08-05T01:13:16.357Z,100417
2017-08-05T01:18:19.540Z,100416
2017-08-05T01:23:23.482Z,100412
2017-08-05T01:28:26.676Z,100421
2017-08-05T01:33:29.837Z,100416
2017-08-05T01:38:33.012Z,100434
2017-08-05T01:43:36.217Z,100431
2017-08-05T01:48:39.417Z,100425
2017-08-05T01:53:42.604Z,100420
2017-08-05T01:58:45.772Z,100423
2017-08-05T02:03:48.965Z,100417
2017-08-05T02:08:52.195Z,100419
2017-08-05T02:13:55.381Z,100417
2017-08-05T02:18:58.581Z,100403
2017-08-05T02:24:01.789Z,100402
2017-08-05T02:29:04.966Z,100388
2017-08-05T02:34:08.174Z,100388
2017-08-05T02:39:11.365Z,100388
2017-08-05T02:44:15.317Z,100373
2017-08-05T02:49:18.509Z,100375
2017-08-05T02:54:21.683Z,100370
2017-08-05T02:59:25.735Z,100355
2017-08-05T03:04:29.662Z,100360
2017-08-05T03:09:32.873Z,100361
2017-08-05T03:14:36.081Z,100363
2017-08-05T03:19:39.277Z,100348
2017-08-05T03:24:42.517Z,100349
2017-08-05T03:29:45.692Z,100343
2017-08-05T03:34:48.933Z,100326
2017-08-05T03:39:52.199Z,100333
2017-08-05T03:44:56.139Z,100344
2017-08-05T03:49:59.308Z,100343
2017-08-05T03:55:03.273Z,100349
2017-08-05T04:00:06.450Z,100342
2017-08-05T04:05:10.395Z,100358
2017-08-05T04:10:13.621Z,100347
2017-08-05T04:15:16.825Z,100353
2017-08-05T04:20:20.038Z,100343
2017-08-05T04:25:23.323Z,100349
2017-08-05T04:30:27.249Z,100344
2017-08-05T04:35:30.457Z,100338
2017-08-05T04:40:33.658Z,100344
2017-08-05T04:45:36.829Z,100331
2017-08-05T04:50:40.006Z,100324
2017-08-05T04:55:43.198Z,100325
2017-08-05T05:00:46.385Z,100323
2017-08-05T05:05:49.588Z,100320
2017-08-05T05:10:53.521Z,100303
2017-08-05T05:15:56.720Z,100306
2017-08-05T05:20:59.921Z,100292
2017-08-05T05:26:03.973Z,100285
2017-08-05T05:31:07.180Z,100288
2017-08-05T05:36:10.366Z,100297
2017-08-05T05:41:13.572Z,100289
2017-08-05T05:46:17.529Z,100299
2017-08-05T05:51:20.697Z,100304
2017-08-05T05:56:24.649Z,100279
2017-08-05T06:01:27.834Z,100281
2017-08-05T06:06:31.031Z,100270
2017-08-05T06:11:35.066Z,100280
2017-08-05T06:16:38.998Z,100263
2017-08-05T06:21:42.196Z,100277
2017-08-05T06:26:45.381Z,100272
2017-08-05T06:31:48.553Z,100266
2017-08-05T06:36:51.770Z,100277
2017-08-05T06:41:54.969Z,100279
2017-08-05T06:46:58.156Z,100279
2017-08-05T06:52:01.343Z,100280
2017-08-05T06:57:04.542Z,100282
2017-08-05T07:02:08.506Z,100269
2017-08-05T07:07:11.693Z,100272
2017-08-05T07:12:14.878Z,100258
2017-08-05T07:17:18.818Z,100259
2017-08-05T07:22:22.027Z,100256
2017-08-05T07:27:25.245Z,100256
2017-08-05T07:32:28.451Z,100248
2017-08-05T07:37:31.634Z,100246
2017-08-05T07:42:35.619Z,100235
2017-08-05T07:47:38.909Z,100253
2017-08-05T07:52:42.122Z,100269
2017-08-05T07:57:45.351Z,100269
2017-08-05T08:02:48.574Z,100256
2017-08-05T08:07:52.518Z,100254
2017-08-05T08:12:55.732Z,100258
2017-08-05T08:17:58.918Z,100260
2017-08-05T08:23:02.886Z,100241
2017-08-05T08:28:06.065Z,100252
2017-08-05T08:33:09.247Z,100254
2017-08-05T08:38:12.430Z,100240
2017-08-05T08:43:15.618Z,100231
2017-08-05T08:48:19.608Z,100226
2017-08-05T08:53:23.565Z,100215
2017-08-05T08:58:26.759Z,100221
2017-08-05T09:03:29.965Z,100208
2017-08-05T09:08:33.147Z,100210
2017-08-05T09:13:37.082Z,100212
2017-08-05T09:18:40.257Z,100206
2017-08-05T09:23:44.229Z,100212
2017-08-05T09:28:47.409Z,100207
2017-08-05T09:33:50.601Z,100208
2017-08-05T09:38:54.563Z,100226
2017-08-05T09:43:57.739Z,100229
2017-08-05T09:49:01.701Z,100234
2017-08-05T09:54:04.945Z,100247
2017-08-05T09:59:08.122Z,100250
2017-08-05T10:04:11.385Z,100245
2017-08-05T10:09:15.385Z,100252
2017-08-05T10:14:18.579Z,100253
2017-08-05T10:19:21.780Z,100240
2017-08-05T10:24:24.957Z,100244
2017-08-05T10:29:28.144Z,100234
2017-08-05T10:34:31.333Z,100251
2017-08-05T10:39:35.285Z,100250
2017-08-05T10:44:38.493Z,100232
2017-08-05T10:49:41.734Z,100236
2017-08-05T10:54:44.951Z,100231
2017-08-05T10:59:48.159Z,100226
2017-08-05T11:04:51.379Z,100222
2017-08-05T11:09:54.557Z,100234
2017-08-05T11:14:57.798Z,100230
2017-08-05T11:20:00.995Z,100226
2017-08-05T11:25:04.202Z,100233
2017-08-05T11:30:07.428Z,100231
2017-08-05T11:35:10.678Z,100239
2017-08-05T11:40:13.864Z,100235
2017-08-05T11:45:17.081Z,100224
2017-08-05T11:50:20.653Z,100220
2017-08-05T11:55:23.994Z,100203
2017-08-05T12:00:27.943Z,100193
2017-08-05T12:05:31.134Z,100195
2017-08-05T12:10:34.340Z,100203
2017-08-05T12:15:37.534Z,100208
2017-08-05T12:20:40.727Z,100205
2017-08-05T12:25:44.698Z,100188
2017-08-05T12:30:47.886Z,100181
2017-08-05T12:35:51.069Z,100177
2017-08-05T12:40:55.033Z,100167
2017-08-05T12:45:58.587Z,100190
2017-08-05T12:51:01.874Z,100237
2017-08-05T12:56:05.060Z,100239
2017-08-05T13:01:08.250Z,100231
2017-08-05T13:06:11.428Z,100250
2017-08-05T13:11:15.413Z,100227
2017-08-05T13:16:18.594Z,100225
2017-08-05T13:21:21.768Z,100221
2017-08-05T13:26:25.740Z,100211
2017-08-05T13:31:28.985Z,100211
2017-08-05T13:36:32.190Z,100206
2017-08-05T13:41:35.384Z,100209
2017-08-05T13:46:38.585Z,100214
2017-08-05T13:51:41.774Z,100214
2017-08-05T13:56:44.970Z,100206
2017-08-05T14:01:48.205Z,100208
2017-08-05T14:06:51.394Z,100222
2017-08-05T14:11:54.606Z,100223
2017-08-05T14:16:57.797Z,100213
2017-08-05T14:22:00.984Z,100226
2017-08-05T14:27:04.163Z,100226
2017-08-05T14:32:07.334Z,100222
2017-08-05T14:37:10.539Z,100235
2017-08-05T14:42:13.753Z,100239
2017-08-05T14:47:16.961Z,100244
2017-08-05T14:52:20.255Z,100245
2017-08-05T14:57:23.454Z,100255
2017-08-05T15:02:26.634Z,100252
2017-08-05T15:07:29.849Z,100259
2017-08-05T15:12:33.035Z,100269
2017-08-05T15:17:37.017Z,100275
2017-08-05T15:22:40.329Z,100286
2017-08-05T15:27:43.593Z,100288
2017-08-05T15:32:47.550Z,100295
2017-08-05T15:37:50.740Z,100311
2017-08-05T15:42:53.918Z,100319
2017-08-05T15:47:57.888Z,100312
2017-08-05T15:53:01.281Z,100320
2017-08-05T15:58:04.593Z,100314
2017-08-05T16:03:07.805Z,100309
2017-08-05T16:08:11.051Z,100309
2017-08-05T16:13:14.304Z,100322
2017-08-05T16:18:17.853Z,100323
2017-08-05T16:23:21.031Z,100352
2017-08-05T16:28:24.294Z,100362
2017-08-05T16:33:27.462Z,100367
2017-08-05T16:38:30.657Z,100371
2017-08-05T16:43:33.879Z,100404
2017-08-05T16:48:37.078Z,100407
2017-08-05T16:53:40.273Z,100400
2017-08-05T16:58:43.474Z,100403
2017-08-05T17:03:46.668Z,100415
2017-08-05T17:08:50.630Z,100423
2017-08-05T17:13:53.827Z,100438
2017-08-05T17:18:57.015Z,100450
2017-08-05T17:24:00.222Z,100458
2017-08-05T17:29:04.315Z,100454
2017-08-05T17:34:07.475Z,100461
2017-08-05T17:39:10.613Z,100481
2017-08-05T17:44:13.934Z,100487
2017-08-05T17:49:17.127Z,100503
2017-08-05T17:54:20.306Z,100504
2017-08-05T17:59:23.490Z,100498
2017-08-05T18:04:26.683Z,100507
2017-08-05T18:09:30.632Z,100510
2017-08-05T18:14:33.831Z,100500
2017-08-05T18:19:37.026Z,100515
2017-08-05T18:24:40.972Z,100526
2017-08-05T18:29:44.272Z,100539
2017-08-05T18:34:47.439Z,100538
2017-08-05T18:39:50.752Z,100545
2017-08-05T18:44:53.933Z,100547
2017-08-05T18:49:57.147Z,100568
2017-08-05T18:55:00.658Z,100566
2017-08-05T19:00:03.834Z,100586
2017-08-05T19:05:07.046Z,100582
2017-08-05T19:10:10.221Z,100592
2017-08-05T19:15:13.422Z,100608
2017-08-05T19:20:17.394Z,100633
2017-08-05T19:25:20.598Z,100635
2017-08-05T19:30:23.774Z,100639
2017-08-05T19:35:26.971Z,100658
2017-08-05T19:40:30.922Z,100673
2017-08-05T19:45:34.141Z,100665
2017-08-05T19:50:37.308Z,100668
2017-08-05T19:55:40.613Z,100680
2017-08-05T20:00:44.568Z,100682
2017-08-05T20:05:47.836Z,100682
2017-08-05T20:10:51.039Z,100690
2017-08-05T20:15:54.278Z,100699
2017-08-05T20:20:58.218Z,100708
2017-08-05T20:26:01.449Z,100702
2017-08-05T20:31:04.754Z,100708
2017-08-05T20:36:07.932Z,100715
2017-08-05T20:41:11.154Z,100716
2017-08-05T20:46:14.339Z,100720
2017-08-05T20:51:17.537Z,100727
2017-08-05T20:56:20.762Z,100726
2017-08-05T21:01:23.970Z,100734
2017-08-05T21:06:27.177Z,100742
2017-08-05T21:11:30.350Z,100747
2017-08-05T21:16:34.301Z,100744
2017-08-05T21:21:37.591Z,100743
2017-08-05T21:26:41.541Z,100759
2017-08-05T21:31:44.718Z,100761
2017-08-05T21:36:48.699Z,100772
2017-08-05T21:41:51.905Z,100779
2017-08-05T21:46:55.106Z,100787
2017-08-05T21:51:58.297Z,100787
2017-08-05T21:57:01.576Z,100788
2017-08-05T22:02:05.530Z,100786
2017-08-05T22:07:08.674Z,100788
2017-08-05T22:12:11.854Z,100803
2017-08-05T22:17:15.057Z,100794
2017-08-05T22:22:18.220Z,100809
2017-08-05T22:27:21.422Z,100805
2017-08-05T22:32:25.373Z,100811
2017-08-05T22:37:28.655Z,100811
2017-08-05T22:42:32.605Z,100822
2017-08-05T22:47:35.777Z,100824
2017-08-05T22:52:39.717Z,100831
2017-08-05T22:57:42.917Z,100825
2017-08-05T23:02:46.868Z,100825
2017-08-05T23:07:50.053Z,100829
2017-08-05T23:12:53.999Z,100837
2017-08-05T23:17:57.239Z,100837
2017-08-05T23:23:00.426Z,100837
2017-08-05T23:28:03.608Z,100834
2017-08-05T23:33:06.829Z,100833
2017-08-05T23:38:10.022Z,100839
2017-08-05T23:43:13.218Z,100838
2017-08-05T23:48:17.146Z,100849
2017-08-05T23:53:20.351Z,100853
2017-08-05T23:58:23.689Z,100853
